Country
Station

 

Weather  for  Wagga Airport  -  Australia    Australia

  
12 °C (54 °F)
    
 
 

Current METAR for Wagga Airport is :

YSWG 171100Z AUTO 25016KT 9999 // BKN062 BKN092 OVC110 12/05 Q1013

 

This is a report for Wagga Airport - Australia.
 
The report was made 9 minutes ago, at 11:00 UTC .
The wind was blowing at a speed of 8.2 meters per second (18.4 miles per hour) from west/southwest (250°).
 
The temperature was 12 °C (54 °F), with a dew-point at 5 °C (41 °F).
The atmospheric pressure was 1013 hPa (29.91 inHg).
The relative humidity was 62.2%.
 
There were broken clouds at a height of 1890 meters (6200 feet) and broken clouds at a height of 2804 meters (9200 feet). The sky was overcast from a height of 3353 meter (11000 feet)
 
The overall visibility was greater than 10 kilometers (6.2 miles).
 

 
 
 
 

Country :   A   B   C   D   E   F   G   H   I   J   K   L   M   N   O   P   Q   R   S   T   U   V   W   Y   Z

 

Site Info  |  Disclaimer  |  Credits  |  Privacy
Contact us  |  Add to favorites
© 2013-2018 METARs - All rights reserved